Rogue River, Oregon
Current Conditions -  °F | °C
As of 4:56 AM on Thursday 23 Oct 2014 (Local Time) from KSXT Reporting Station
Light Rain Light Rain  
Wind Chill: 44°   Ceiling: 100
Heat Index: 49°   Visibility: 0.25mi
Dew Point: 49°   Wind: 12mph
Humidity: 100%   Direction: 190°S
Pressure: 29.86"   Gusts: 22mph
Location:  42.44°N, 123.17°W
Report Text: KSXT 231156Z AUTO 19010G19KT 1/4SM -RA FG VV001 09/09 A2986 RMK AO2 SLP097 P0010 60083 70124 T00940094 10094 20089 55003
Loading
Personal Weather Stations






























Interactive Weather Map
Tropical Storm Tracking
New forecast layout! Learn more

10-Day Weather Forecast

Advertisements
Track Severe Weather on mobile